createdAt,value
2023-04-02T00:00:11.019Z,78.66
2023-04-02T00:02:57.187Z,79.78
2023-04-02T00:05:35.832Z,79.24
2023-04-02T00:08:20.695Z,79.05
2023-04-02T00:10:52.311Z,79.15
2023-04-02T00:13:43.955Z,78.69
2023-04-02T00:16:23.327Z,79.11
2023-04-02T00:18:59.223Z,78.25
2023-04-02T00:21:34.906Z,77.76
2023-04-02T00:24:13.652Z,77.82
2023-04-02T00:26:48.767Z,77.53
2023-04-02T00:29:17.849Z,77.19
2023-04-02T00:31:52.592Z,76.45
2023-04-02T00:34:30.807Z,76.85
2023-04-02T00:37:01.820Z,76.12
2023-04-02T00:39:42.058Z,75.20
2023-04-02T00:42:18.153Z,75.51
2023-04-02T00:44:46.778Z,75.99
2023-04-02T00:47:32.011Z,75.54
2023-04-02T00:50:24.943Z,75.25
2023-04-02T00:52:54.647Z,76.67
2023-04-02T00:55:39.292Z,76.96
2023-04-02T00:58:42.782Z,76.68
2023-04-02T01:01:28.765Z,75.62
2023-04-02T01:04:02.564Z,76.51
2023-04-02T01:06:38.671Z,76.15
2023-04-02T01:09:19.640Z,75.52
2023-04-02T01:12:13.164Z,75.46
2023-04-02T01:15:05.507Z,75.58
2023-04-02T01:18:21.100Z,75.82
2023-04-02T01:21:15.622Z,74.79
2023-04-02T01:24:07.732Z,74.90
2023-04-02T01:27:02.301Z,76.33
2023-04-02T01:30:08.609Z,75.78
2023-04-02T01:32:36.399Z,76.36
2023-04-02T01:35:08.450Z,76.60
2023-04-02T01:37:57.180Z,77.43
2023-04-02T01:40:32.843Z,77.28
2023-04-02T01:43:38.530Z,78.47
2023-04-02T01:46:33.657Z,79.40
2023-04-02T01:49:24.018Z,79.18
2023-04-02T01:51:56.808Z,77.88
2023-04-02T01:54:25.979Z,78.47
2023-04-02T01:56:53.256Z,77.68
2023-04-02T01:59:23.163Z,78.86
2023-04-02T02:02:04.945Z,78.35
2023-04-02T02:04:33.203Z,79.21
2023-04-02T02:07:01.799Z,78.38
2023-04-02T02:09:35.843Z,78.33
2023-04-02T02:12:05.835Z,78.25
2023-04-02T02:14:33.394Z,78.13
2023-04-02T02:17:02.725Z,77.40
2023-04-02T02:19:48.320Z,77.80
2023-04-02T02:22:38.931Z,77.80
2023-04-02T02:25:22.095Z,77.62
2023-04-02T02:28:18.125Z,77.33
2023-04-02T02:30:51.923Z,77.62
2023-04-02T02:33:32.267Z,78.45
2023-04-02T02:36:01.714Z,77.95
2023-04-02T02:38:35.195Z,78.11
2023-04-02T02:41:13.199Z,78.06
2023-04-02T02:43:52.371Z,78.13
2023-04-02T02:46:22.538Z,77.43
2023-04-02T02:48:52.750Z,77.24
2023-04-02T02:51:41.425Z,76.83
2023-04-02T02:54:08.581Z,77.28
2023-04-02T02:56:40.432Z,76.09
2023-04-02T02:59:11.305Z,76.61
2023-04-02T03:01:38.600Z,77.23
2023-04-02T03:04:07.528Z,76.60
2023-04-02T03:06:36.719Z,76.51
2023-04-02T03:09:40.317Z,76.87
2023-04-02T03:12:44.174Z,76.67
2023-04-02T03:15:34.997Z,76.38
2023-04-02T03:18:12.544Z,76.35
2023-04-02T03:21:23.024Z,76.94
2023-04-02T03:23:55.418Z,76.14
2023-04-02T03:26:35.613Z,75.95
2023-04-02T03:29:13.558Z,76.29
2023-04-02T03:31:47.032Z,75.92
2023-04-02T03:34:14.236Z,76.01
2023-04-02T03:36:59.803Z,75.48
2023-04-02T03:39:45.107Z,75.55
2023-04-02T03:42:19.931Z,75.24
2023-04-02T03:44:55.430Z,75.37
2023-04-02T03:47:36.872Z,75.38
2023-04-02T03:50:12.259Z,75.46
2023-04-02T03:52:41.766Z,75.02
2023-04-02T03:55:19.980Z,76.20
2023-04-02T03:58:17.264Z,75.56
2023-04-02T04:01:01.897Z,75.12
2023-04-02T04:03:52.828Z,74.70
2023-04-02T04:06:35.113Z,74.96
2023-04-02T04:09:18.439Z,74.38
2023-04-02T04:11:55.448Z,74.06
2023-04-02T04:14:48.680Z,74.36
2023-04-02T04:18:02.249Z,73.40
2023-04-02T04:20:58.309Z,73.51
2023-04-02T04:23:35.976Z,72.79
2023-04-02T04:26:19.886Z,73.10
2023-04-02T04:29:24.933Z,72.85
2023-04-02T04:31:55.980Z,72.15
2023-04-02T04:34:47.000Z,72.27
2023-04-02T04:37:33.418Z,73.17
2023-04-02T04:40:12.016Z,72.82
2023-04-02T04:42:43.280Z,72.42
2023-04-02T04:45:42.440Z,72.62
2023-04-02T04:48:18.024Z,71.86
2023-04-02T04:51:08.174Z,72.32
2023-04-02T04:53:47.588Z,72.19
2023-04-02T04:56:21.668Z,71.92
2023-04-02T04:59:03.359Z,73.02
2023-04-02T05:01:50.686Z,72.52
2023-04-02T05:04:27.153Z,72.72
2023-04-02T05:07:19.225Z,71.86
2023-04-02T05:09:55.723Z,72.10
2023-04-02T05:12:38.333Z,71.38
2023-04-02T05:15:58.102Z,70.92
2023-04-02T05:18:52.810Z,70.73
2023-04-02T05:21:33.534Z,70.30
2023-04-02T05:24:36.073Z,71.11
2023-04-02T05:27:16.756Z,71.19
2023-04-02T05:29:51.477Z,70.63
2023-04-02T05:32:34.597Z,71.17
2023-04-02T05:35:05.662Z,71.35
2023-04-02T05:37:38.731Z,71.05
2023-04-02T05:40:21.490Z,70.16
2023-04-02T05:42:53.504Z,69.72
2023-04-02T05:45:42.172Z,69.67
2023-04-02T05:48:27.727Z,69.89
2023-04-02T05:50:59.808Z,70.21
2023-04-02T05:53:57.910Z,69.83
2023-04-02T05:56:55.534Z,69.05
2023-04-02T05:59:34.683Z,69.84
2023-04-02T06:02:42.577Z,69.05
2023-04-02T06:05:30.277Z,68.86
2023-04-02T06:08:14.235Z,68.97
2023-04-02T06:11:12.148Z,68.68
2023-04-02T06:13:41.717Z,68.77
2023-04-02T06:16:14.366Z,69.43
2023-04-02T06:18:42.819Z,68.45
2023-04-02T06:21:15.714Z,69.03
2023-04-02T06:23:55.786Z,67.71
2023-04-02T06:26:41.805Z,66.71
2023-04-02T06:29:24.802Z,66.35
2023-04-02T06:31:57.660Z,66.91
2023-04-02T06:34:31.968Z,66.40
2023-04-02T06:37:31.499Z,66.13
2023-04-02T06:39:59.749Z,64.84
2023-04-02T06:42:41.529Z,65.01
2023-04-02T06:45:22.426Z,65.26
2023-04-02T06:47:58.031Z,64.26
2023-04-02T06:50:55.075Z,63.64
2023-04-02T06:53:33.692Z,62.64
2023-04-02T06:56:41.826Z,60.92
2023-04-02T06:59:09.774Z,61.67
2023-04-02T07:01:47.018Z,61.59
2023-04-02T07:04:14.755Z,61.36
2023-04-02T07:09:11.718Z,60.39
2023-04-02T07:11:41.284Z,61.89
2023-04-02T07:14:13.070Z,61.34
2023-04-02T07:16:44.066Z,59.89
2023-04-02T07:19:20.519Z,60.34
2023-04-02T07:21:47.819Z,59.61
2023-04-02T07:24:14.874Z,59.52
2023-04-02T07:26:42.062Z,59.13
2023-04-02T07:29:16.747Z,57.92
2023-04-02T07:31:44.588Z,55.69
2023-04-02T07:34:12.116Z,54.35
2023-04-02T07:36:39.110Z,52.90
2023-04-02T07:39:08.601Z,52.47
2023-04-02T07:41:57.234Z,52.55
2023-04-02T07:44:24.246Z,53.56
2023-04-02T07:46:51.397Z,49.19
2023-04-02T07:49:18.533Z,43.74
2023-04-02T07:51:45.673Z,43.50
2023-04-02T07:54:14.797Z,46.15
2023-04-02T07:56:44.016Z,46.33
2023-04-02T07:59:11.305Z,45.86
2023-04-02T08:01:42.915Z,43.63
2023-04-02T08:04:21.353Z,37.13
2023-04-02T08:06:52.856Z,34.71
2023-04-02T08:09:19.892Z,34.54
2023-04-02T08:11:46.929Z,35.53
2023-04-02T08:14:14.075Z,38.97
2023-04-02T08:16:47.643Z,42.26
2023-04-02T08:19:15.659Z,44.43
2023-04-02T08:21:45.119Z,44.73
2023-04-02T08:24:14.477Z,46.21
2023-04-02T08:26:42.972Z,47.38
2023-04-02T08:29:11.312Z,47.83
2023-04-02T08:31:38.379Z,47.61
2023-04-02T08:34:05.449Z,48.15
2023-04-02T08:36:39.021Z,46.97
2023-04-02T08:39:10.953Z,43.63
2023-04-02T08:42:01.639Z,36.37
2023-04-02T08:44:52.793Z,32.46
2023-04-02T08:47:25.831Z,31.40
2023-04-02T08:50:02.507Z,35.02
2023-04-02T08:52:37.795Z,38.14
2023-04-02T08:55:30.542Z,39.42
2023-04-02T08:58:23.563Z,42.14
2023-04-02T09:00:55.604Z,43.98
2023-04-02T09:03:36.974Z,42.87
2023-04-02T09:06:04.638Z,38.30
2023-04-02T09:08:35.669Z,38.67
2023-04-02T09:11:34.565Z,39.08
2023-04-02T09:14:09.475Z,38.73
2023-04-02T09:16:52.526Z,33.87
2023-04-02T09:19:36.780Z,31.83
2023-04-02T09:22:35.048Z,28.53
2023-04-02T09:25:05.603Z,28.60
2023-04-02T09:27:36.066Z,32.00
2023-04-02T09:30:43.478Z,32.13
2023-04-02T09:33:13.023Z,33.93
2023-04-02T09:35:48.994Z,35.41
2023-04-02T09:38:24.610Z,32.18
2023-04-02T09:40:58.534Z,27.93
2023-04-02T09:43:32.491Z,28.21
2023-04-02T09:46:25.881Z,27.16
2023-04-02T09:49:01.474Z,26.59
2023-04-02T09:51:34.706Z,24.81
2023-04-02T09:54:04.769Z,24.18
2023-04-02T09:56:34.669Z,22.40
2023-04-02T09:59:13.315Z,22.76
2023-04-02T10:01:43.932Z,25.91
2023-04-02T10:04:45.044Z,27.74
2023-04-02T10:07:30.870Z,28.02
2023-04-02T10:10:17.775Z,28.02
2023-04-02T10:12:49.833Z,24.43
2023-04-02T10:15:27.229Z,24.36
2023-04-02T10:18:15.106Z,26.40
2023-04-02T10:20:51.064Z,27.69
2023-04-02T10:23:20.077Z,25.63
2023-04-02T10:26:31.900Z,23.31
2023-04-02T10:29:32.745Z,21.49
2023-04-02T10:32:25.161Z,19.75
2023-04-02T10:35:07.610Z,20.30
2023-04-02T10:37:47.123Z,24.38
2023-04-02T10:40:35.880Z,27.81
2023-04-02T10:43:47.694Z,27.91
2023-04-02T10:46:38.971Z,24.45
2023-04-02T10:50:07.797Z,23.55
2023-04-02T10:52:46.415Z,22.75
2023-04-02T10:55:26.445Z,22.53
2023-04-02T10:57:57.538Z,23.63
2023-04-02T11:00:31.829Z,24.32
2023-04-02T11:03:13.445Z,26.41
2023-04-02T11:05:52.150Z,29.29
2023-04-02T11:08:44.597Z,27.81
2023-04-02T11:11:24.644Z,26.78
2023-04-02T11:14:02.027Z,26.38
2023-04-02T11:16:32.181Z,26.73
2023-04-02T11:19:17.616Z,23.62
2023-04-02T11:22:01.297Z,21.55
2023-04-02T11:24:30.228Z,20.97
2023-04-02T11:27:12.459Z,20.80
2023-04-02T11:30:25.809Z,19.99
2023-04-02T11:33:39.820Z,22.82
2023-04-02T11:36:55.000Z,27.11
2023-04-02T11:39:55.189Z,23.26
2023-04-02T11:42:29.556Z,22.17
2023-04-02T11:45:26.166Z,20.56
2023-04-02T11:48:03.876Z,20.52
2023-04-02T11:50:40.938Z,21.09
2023-04-02T11:53:13.562Z,20.89
2023-04-02T11:56:04.979Z,20.78
2023-04-02T11:58:56.125Z,20.01
2023-04-02T12:01:53.692Z,19.94
2023-04-02T12:04:38.911Z,22.33
2023-04-02T12:07:39.168Z,25.44
2023-04-02T12:10:17.688Z,25.08
2023-04-02T12:12:47.162Z,22.83
2023-04-02T12:15:32.694Z,21.88
2023-04-02T12:18:21.890Z,21.21
2023-04-02T12:20:58.989Z,21.77
2023-04-02T12:23:36.425Z,21.68
2023-04-02T12:26:37.262Z,23.22
2023-04-02T12:29:25.042Z,22.25
2023-04-02T12:31:54.297Z,21.72
2023-04-02T12:34:26.834Z,22.52
2023-04-02T12:37:04.871Z,23.49
2023-04-02T12:39:34.579Z,24.77
2023-04-02T12:42:02.061Z,23.49
2023-04-02T12:44:33.930Z,21.80
2023-04-02T12:47:01.769Z,21.09
2023-04-02T12:49:43.614Z,23.91
2023-04-02T12:52:17.668Z,22.01
2023-04-02T12:54:58.490Z,21.40
2023-04-02T12:57:31.717Z,23.68
2023-04-02T13:00:01.214Z,25.47
2023-04-02T13:02:30.176Z,27.67
2023-04-02T13:05:02.358Z,25.75
2023-04-02T13:07:35.386Z,24.18
2023-04-02T13:10:18.490Z,22.78
2023-04-02T13:12:46.053Z,26.08
2023-04-02T13:15:33.067Z,28.87
2023-04-02T13:18:19.911Z,29.16
2023-04-02T13:20:58.609Z,28.40
2023-04-02T13:23:32.300Z,29.92
2023-04-02T13:26:10.936Z,32.08
2023-04-02T13:28:38.678Z,32.96
2023-04-02T13:31:08.784Z,33.47
2023-04-02T13:33:40.261Z,33.18
2023-04-02T13:36:13.496Z,32.01
2023-04-02T13:38:41.792Z,34.12
2023-04-02T13:41:44.419Z,35.18
2023-04-02T13:44:30.716Z,36.67
2023-04-02T13:46:59.923Z,36.28
2023-04-02T13:49:27.778Z,32.71
2023-04-02T13:52:05.295Z,30.72
2023-04-02T13:54:49.188Z,32.88
2023-04-02T13:57:19.062Z,34.70
2023-04-02T13:59:48.640Z,36.05
2023-04-02T14:02:23.045Z,36.82
2023-04-02T14:05:11.402Z,35.80
2023-04-02T14:08:05.801Z,36.64
2023-04-02T14:10:57.611Z,37.34
2023-04-02T14:13:55.011Z,38.55
2023-04-02T14:16:34.084Z,38.35
2023-04-02T14:19:10.333Z,39.46
2023-04-02T14:22:07.089Z,40.23
2023-04-02T14:24:45.888Z,40.96
2023-04-02T14:27:28.595Z,38.31
2023-04-02T14:30:52.286Z,38.70
2023-04-02T14:33:49.594Z,39.81
2023-04-02T14:36:28.678Z,38.95
2023-04-02T14:39:09.207Z,39.13
2023-04-02T14:42:13.759Z,38.29
2023-04-02T14:45:01.420Z,35.73
2023-04-02T14:47:50.448Z,35.94
2023-04-02T14:50:27.954Z,38.53
2023-04-02T14:53:02.310Z,40.72
2023-04-02T14:55:43.798Z,42.14
2023-04-02T14:58:40.240Z,40.97
2023-04-02T15:01:19.475Z,40.71
2023-04-02T15:03:56.859Z,40.62
2023-04-02T15:06:53.083Z,42.63
2023-04-02T15:09:34.190Z,42.49
2023-04-02T15:12:10.367Z,41.28
2023-04-02T15:14:51.370Z,41.99
2023-04-02T15:17:23.099Z,42.57
2023-04-02T15:19:58.640Z,43.52
2023-04-02T15:22:41.013Z,43.77
2023-04-02T15:25:26.524Z,44.92
2023-04-02T15:28:43.654Z,46.04
2023-04-02T15:31:15.009Z,47.86
2023-04-02T15:34:06.123Z,47.90
2023-04-02T15:37:01.667Z,45.74
2023-04-02T15:40:08.151Z,46.77
2023-04-02T15:42:48.437Z,47.04
2023-04-02T15:45:27.560Z,45.67
2023-04-02T15:48:42.403Z,45.91
2023-04-02T15:51:39.121Z,47.25
2023-04-02T15:54:37.232Z,49.10
2023-04-02T15:57:26.605Z,48.71
2023-04-02T16:00:11.324Z,49.38
2023-04-02T16:03:11.093Z,49.53
2023-04-02T16:06:00.604Z,49.55
2023-04-02T16:08:57.278Z,49.10
2023-04-02T16:11:26.217Z,49.26
2023-04-02T16:14:10.978Z,50.79
2023-04-02T16:16:43.408Z,51.13
2023-04-02T16:19:42.287Z,49.61
2023-04-02T16:22:23.707Z,49.55
2023-04-02T16:25:04.041Z,49.88
2023-04-02T16:28:07.853Z,50.37
2023-04-02T16:31:06.957Z,52.23
2023-04-02T16:33:59.713Z,53.07
2023-04-02T16:36:53.011Z,53.69
2023-04-02T16:39:38.925Z,54.86
2023-04-02T16:42:48.204Z,54.99
2023-04-02T16:45:34.705Z,55.21
2023-04-02T16:48:10.521Z,55.04
2023-04-02T16:51:22.806Z,55.56
2023-04-02T16:54:13.664Z,54.94
2023-04-02T16:57:20.534Z,54.67
2023-04-02T17:00:12.372Z,55.67
2023-04-02T17:03:10.512Z,56.58
2023-04-02T17:06:00.178Z,56.50
2023-04-02T17:08:35.882Z,57.43
2023-04-02T17:11:29.117Z,56.21
2023-04-02T17:14:08.689Z,55.57
2023-04-02T17:16:51.607Z,56.46
2023-04-02T17:19:20.858Z,56.27
2023-04-02T17:21:52.349Z,56.57
2023-04-02T17:24:41.018Z,57.23
2023-04-02T17:27:35.050Z,56.73
2023-04-02T17:30:26.228Z,57.96
2023-04-02T17:32:53.264Z,58.41
2023-04-02T17:35:56.348Z,57.41
2023-04-02T17:39:03.695Z,57.43
2023-04-02T17:42:04.596Z,57.07
2023-04-02T17:45:04.636Z,56.63
2023-04-02T17:47:37.371Z,57.36
2023-04-02T17:50:31.862Z,57.48
2023-04-02T17:53:03.494Z,58.38
2023-04-02T17:55:52.970Z,59.26
2023-04-02T17:59:09.653Z,60.12
2023-04-02T18:02:09.443Z,60.32
2023-04-02T18:05:18.007Z,58.99
2023-04-02T18:08:25.910Z,60.30
2023-04-02T18:11:19.038Z,60.06
2023-04-02T18:14:16.255Z,60.08
2023-04-02T18:17:32.000Z,61.08
2023-04-02T18:20:32.303Z,59.79
2023-04-02T18:23:42.593Z,59.51
2023-04-02T18:26:38.464Z,60.53
2023-04-02T18:29:31.117Z,60.87
2023-04-02T18:32:22.848Z,62.36
2023-04-02T18:35:34.853Z,62.66
2023-04-02T18:38:04.838Z,63.28
2023-04-02T18:41:13.335Z,62.06
2023-04-02T18:43:46.199Z,62.75
2023-04-02T18:46:22.646Z,61.94
2023-04-02T18:48:53.581Z,62.57
2023-04-02T18:51:24.428Z,62.90
2023-04-02T18:54:09.708Z,63.00
2023-04-02T18:56:41.769Z,63.93
2023-04-02T18:59:34.764Z,62.60
2023-04-02T19:02:21.308Z,63.38
2023-04-02T19:05:28.842Z,63.28
2023-04-02T19:08:29.651Z,64.68
2023-04-02T19:11:09.770Z,64.13
2023-04-02T19:13:36.813Z,63.24
2023-04-02T19:16:26.362Z,64.46
2023-04-02T19:19:14.444Z,63.88
2023-04-02T19:22:23.194Z,63.72
2023-04-02T19:25:44.423Z,64.97
2023-04-02T19:28:29.245Z,65.17
2023-04-02T19:31:24.211Z,65.49
2023-04-02T19:34:12.282Z,66.18
2023-04-02T19:36:55.372Z,66.32
2023-04-02T19:40:11.634Z,65.69
2023-04-02T19:42:52.002Z,65.72
2023-04-02T19:45:39.967Z,66.79
2023-04-02T19:48:17.378Z,67.02
2023-04-02T19:50:48.457Z,66.24
2023-04-02T19:53:16.555Z,66.76
2023-04-02T19:55:46.749Z,67.69
2023-04-02T19:58:39.408Z,67.09
2023-04-02T20:01:09.169Z,68.06
2023-04-02T20:03:36.293Z,68.64
2023-04-02T20:06:03.641Z,68.14
2023-04-02T20:08:30.797Z,68.75
2023-04-02T20:11:00.730Z,68.69
2023-04-02T20:13:30.362Z,67.80
2023-04-02T20:16:06.242Z,67.89
2023-04-02T20:18:37.112Z,68.41
2023-04-02T20:21:06.800Z,68.96
2023-04-02T20:23:35.926Z,68.18
2023-04-02T20:26:05.075Z,68.88
2023-04-02T20:28:35.211Z,69.32
2023-04-02T20:31:16.795Z,69.92
2023-04-02T20:33:44.748Z,70.61
2023-04-02T20:36:16.875Z,70.45
2023-04-02T20:38:45.557Z,69.88
2023-04-02T20:41:16.161Z,70.21
2023-04-02T20:43:45.698Z,70.34
2023-04-02T20:46:15.663Z,70.86
2023-04-02T20:48:43.388Z,70.51
2023-04-02T20:51:16.261Z,70.59
2023-04-02T20:53:43.888Z,70.09
2023-04-02T20:56:15.506Z,70.86
2023-04-02T20:58:43.712Z,71.02
2023-04-02T21:01:22.912Z,71.34
2023-04-02T21:04:03.282Z,71.13
2023-04-02T21:06:35.900Z,70.91
2023-04-02T21:09:15.153Z,72.07
2023-04-02T21:11:44.977Z,71.24
2023-04-02T21:14:12.333Z,71.48
2023-04-02T21:16:41.557Z,72.13
2023-04-02T21:19:10.145Z,72.51
2023-04-02T21:21:40.834Z,72.30
2023-04-02T21:24:11.948Z,71.89
2023-04-02T21:26:41.563Z,71.77
2023-04-02T21:29:08.891Z,73.15
2023-04-02T21:31:42.188Z,72.42
2023-04-02T21:34:14.383Z,72.59
2023-04-02T21:36:48.868Z,72.33
2023-04-02T21:39:29.193Z,72.53
2023-04-02T21:41:58.519Z,72.67
2023-04-02T21:44:25.704Z,72.02
2023-04-02T21:46:55.399Z,71.66
2023-04-02T21:49:26.425Z,72.11
2023-04-02T21:51:53.422Z,72.51
2023-04-02T21:54:25.686Z,72.46
2023-04-02T21:56:53.210Z,72.07
2023-04-02T21:59:22.727Z,72.96
2023-04-02T22:01:52.099Z,72.39
2023-04-02T22:04:25.331Z,72.57
2023-04-02T22:06:53.332Z,71.82
2023-04-02T22:09:25.817Z,71.65
2023-04-02T22:11:59.433Z,71.63
2023-04-02T22:14:27.773Z,71.87
2023-04-02T22:16:55.864Z,72.32
2023-04-02T22:19:25.157Z,72.59
2023-04-02T22:21:53.141Z,72.64
2023-04-02T22:24:22.327Z,73.49
2023-04-02T22:26:49.944Z,73.12
2023-04-02T22:29:17.027Z,72.12
2023-04-02T22:31:44.120Z,72.50
2023-04-02T22:34:11.168Z,72.21
2023-04-02T22:36:41.358Z,72.05
2023-04-02T22:39:10.497Z,71.29
2023-04-02T22:41:38.445Z,71.52
2023-04-02T22:44:05.521Z,72.28
2023-04-02T22:46:32.926Z,72.06
2023-04-02T22:48:59.939Z,71.80
2023-04-02T22:51:30.688Z,73.19
2023-04-02T22:54:00.327Z,73.31
2023-04-02T22:56:35.420Z,73.08
2023-04-02T22:59:05.658Z,72.91
2023-04-02T23:01:35.800Z,72.78
2023-04-02T23:04:05.668Z,73.44
2023-04-02T23:06:33.224Z,72.50
2023-04-02T23:09:00.732Z,72.73
2023-04-02T23:11:28.385Z,73.70
2023-04-02T23:14:02.048Z,73.35
2023-04-02T23:16:32.290Z,73.46
2023-04-02T23:18:59.550Z,73.31
2023-04-02T23:21:30.298Z,73.88
2023-04-02T23:23:59.659Z,73.41
2023-04-02T23:26:33.041Z,73.31
2023-04-02T23:29:00.936Z,73.19
2023-04-02T23:31:28.917Z,73.51
2023-04-02T23:33:56.094Z,73.81
2023-04-02T23:36:29.979Z,73.70
2023-04-02T23:39:09.682Z,73.49
2023-04-02T23:41:38.807Z,73.74
2023-04-02T23:44:05.999Z,73.81
2023-04-02T23:46:33.929Z,73.60
2023-04-02T23:49:04.994Z,74.18
2023-04-02T23:51:32.453Z,74.44
2023-04-02T23:53:59.959Z,74.27
2023-04-02T23:56:29.384Z,74.35
2023-04-02T23:58:58.979Z,73.95
